Time;durP1;ratioP1;P1;durP2;ratioP2;P2;SDS_P1;SDS_P2;PMS_P1;PMS_P2;Temp;Humidity;BMP_temperature;BMP_pressure;BME280_temperature;BME280_humidity;BME280_pressure;Samples;Min_cycle;Max_cycle;Signal;HPM_P1;HPM_P2
2020/12/16 00:00:48;;;;;;;28.70;15.35;;;;;;;0.56;87.13;100954.08;1769446;81;21701;-81
2020/12/16 00:03:54;;;;;;;25.68;15.08;;;;;;;0.58;86.86;100969.19;1768694;81;21268;-81
2020/12/16 00:07:00;;;;;;;28.23;15.85;;;;;;;0.58;86.69;100966.98;1767969;81;21304;-80
2020/12/16 00:10:06;;;;;;;22.85;13.98;;;;;;;0.56;86.62;100976.48;1768045;81;21445;-81
2020/12/16 00:13:13;;;;;;;24.47;14.70;;;;;;;0.58;86.65;100975.92;1769044;81;21320;-80
2020/12/16 00:16:20;;;;;;;28.57;17.30;;;;;;;0.60;86.72;100976.68;1769577;81;21304;-80
2020/12/16 00:19:26;;;;;;;28.87;17.90;;;;;;;0.64;86.75;100975.53;1769502;81;21254;-80
2020/12/16 00:22:31;;;;;;;27.25;17.17;;;;;;;0.66;86.61;100976.77;1769527;81;21296;-80
2020/12/16 00:25:37;;;;;;;23.38;13.55;;;;;;;0.64;86.25;100984.09;1769544;81;21181;-80
2020/12/16 00:28:42;;;;;;;22.95;12.80;;;;;;;0.61;86.23;100989.20;1768985;81;21342;-79
2020/12/16 00:31:48;;;;;;;22.22;13.35;;;;;;;0.55;86.09;100993.61;1769567;81;21788;-80
2020/12/16 00:34:53;;;;;;;24.32;13.00;;;;;;;0.46;86.09;100987.45;1768431;81;21229;-80
2020/12/16 00:37:59;;;;;;;33.95;15.48;;;;;;;0.38;86.22;100986.59;1768375;81;21248;-80
2020/12/16 00:41:05;;;;;;;24.35;13.98;;;;;;;0.36;86.49;100984.94;1767727;81;21181;-80
2020/12/16 00:44:12;;;;;;;26.55;15.85;;;;;;;0.44;86.68;100985.34;1768835;81;21327;-80
2020/12/16 00:47:18;;;;;;;23.90;14.07;;;;;;;0.48;86.43;100986.89;1769501;81;21816;-80
2020/12/16 00:50:26;;;;;;;20.50;12.33;;;;;;;0.50;86.19;100997.06;1769532;81;21298;-80
2020/12/16 00:53:31;;;;;;;22.95;12.90;;;;;;;0.49;86.07;100992.65;1769367;81;21303;-80
2020/12/16 00:56:38;;;;;;;20.23;13.50;;;;;;;0.47;86.07;100990.52;1767917;81;21189;-80
2020/12/16 00:59:44;;;;;;;24.20;13.90;;;;;;;0.49;86.12;100982.74;1767502;81;21323;-80
2020/12/16 01:02:55;;;;;;;25.45;15.00;;;;;;;0.54;85.96;100993.23;1768091;81;21358;-80
2020/12/16 01:06:00;;;;;;;28.75;16.62;;;;;;;0.54;85.73;100985.15;1768278;81;21233;-80
2020/12/16 01:09:07;;;;;;;24.45;14.60;;;;;;;0.55;85.67;100977.45;1769445;81;21771;-80
2020/12/16 01:12:13;;;;;;;30.15;17.40;;;;;;;0.61;85.69;100975.74;1769469;81;21292;-80
2020/12/16 01:15:25;;;;;;;33.88;19.23;;;;;;;0.64;85.33;100971.48;1768430;81;21209;-80
2020/12/16 01:18:31;;;;;;;27.52;15.75;;;;;;;0.67;85.24;100972.66;1769487;81;21767;-80
2020/12/16 01:21:43;;;;;;;24.43;13.13;;;;;;;0.69;85.16;100974.75;1769478;81;21300;-80
2020/12/16 01:24:49;;;;;;;24.80;15.05;;;;;;;0.63;85.15;100988.61;1768985;81;21327;-80
2020/12/16 01:28:04;;;;;;;21.30;13.13;;;;;;;0.59;85.12;100983.03;1767873;81;21303;-80
2020/12/16 01:31:12;;;;;;;23.92;14.45;;;;;;;0.58;85.08;100995.25;1767831;81;21327;-80
2020/12/16 01:34:19;;;;;;;23.60;13.98;;;;;;;0.61;85.22;100998.63;1769423;81;21311;-80
2020/12/16 01:37:28;;;;;;;23.57;12.93;;;;;;;0.64;85.17;100984.95;1768143;81;21395;-80
2020/12/16 01:40:34;;;;;;;24.27;13.38;;;;;;;0.66;84.96;100984.84;1768067;81;21859;-80
2020/12/16 01:43:45;;;;;;;19.65;10.98;;;;;;;0.66;84.67;100972.28;1769494;81;21283;-80
2020/12/16 01:47:02;;;;;;;23.38;12.98;;;;;;;0.70;84.53;100971.58;1769324;81;21300;-80
2020/12/16 01:50:12;;;;;;;24.98;14.33;;;;;;;0.71;84.34;100975.54;1769560;81;21827;-80
2020/12/16 01:53:18;;;;;;;23.83;14.03;;;;;;;0.74;84.06;100974.46;1769098;81;21307;-79
2020/12/16 01:56:24;;;;;;;27.67;14.75;;;;;;;0.79;83.92;100983.59;1767522;81;21311;-80
2020/12/16 01:59:31;;;;;;;22.65;12.93;;;;;;;0.82;83.73;100978.89;1768850;81;21335;-80
2020/12/16 02:02:39;;;;;;;24.77;14.18;;;;;;;0.87;83.67;100988.02;1768837;81;21859;-80
2020/12/16 02:05:47;;;;;;;28.23;15.05;;;;;;;0.89;83.50;100989.64;1768697;81;21383;-79
2020/12/16 02:08:53;;;;;;;25.60;15.00;;;;;;;0.92;83.34;101003.41;1769526;81;21216;-80
2020/12/16 02:12:01;;;;;;;26.00;15.23;;;;;;;0.90;83.16;101005.34;1769521;81;21287;-80
2020/12/16 02:15:08;;;;;;;25.68;15.35;;;;;;;0.88;83.33;101004.08;1769381;81;21387;-80
2020/12/16 02:18:09;;;;;;;27.77;15.72;;;;;;;0.93;83.60;101011.87;1769528;81;21303;-80
2020/12/16 02:21:04;;;;;;;26.82;15.45;;;;;;;0.96;83.66;101006.30;1769315;81;21834;-80
2020/12/16 02:24:15;;;;;;;32.90;17.67;;;;;;;0.95;83.74;101005.91;1768015;81;21178;-80
2020/12/16 02:27:22;;;;;;;29.12;17.50;;;;;;;0.96;83.98;101001.77;1769721;81;21876;-80
2020/12/16 02:30:30;;;;;;;26.68;15.53;;;;;;;1.00;84.15;101014.56;1769387;81;21854;-80
2020/12/16 02:33:47;;;;;;;33.63;18.17;;;;;;;1.04;84.25;101024.19;1768065;81;21823;-80
2020/12/16 02:36:55;;;;;;;30.37;16.32;;;;;;;1.03;84.27;101018.39;1768346;81;21328;-80
2020/12/16 02:40:03;;;;;;;31.93;17.20;;;;;;;1.02;84.41;101020.70;1769426;81;21287;-80
2020/12/16 02:43:08;;;;;;;35.73;20.02;;;;;;;1.02;84.57;101024.75;1769548;81;21363;-80
2020/12/16 02:46:16;;;;;;;33.83;19.37;;;;;;;1.00;84.68;101022.66;1768888;81;21264;-80
2020/12/16 02:49:22;;;;;;;36.00;19.15;;;;;;;0.98;84.81;101021.38;1769482;81;21223;-80
2020/12/16 02:52:31;;;;;;;36.88;20.30;;;;;;;0.97;84.92;101026.87;1769509;81;21363;-79
2020/12/16 02:55:38;;;;;;;33.08;16.80;;;;;;;0.96;85.09;101029.19;1769223;81;21910;-80
2020/12/16 02:58:42;;;;;;;34.63;18.92;;;;;;;0.95;85.19;101027.47;1767469;81;21295;-80
2020/12/16 03:01:47;;;;;;;37.33;21.52;;;;;;;0.93;85.28;101032.93;1745893;81;21370;-81
2020/12/16 03:04:54;;;;;;;36.10;20.88;;;;;;;0.94;85.33;101029.75;1772484;81;22531;-81
2020/12/16 03:08:01;;;;;;;33.15;18.62;;;;;;;0.94;85.33;101031.09;1775094;81;21946;-81
2020/12/16 03:11:09;;;;;;;33.63;19.85;;;;;;;0.91;85.36;101032.66;1775030;81;21315;-80
2020/12/16 03:14:17;;;;;;;35.10;17.62;;;;;;;0.89;85.46;101034.08;1774948;81;21256;-80
2020/12/16 03:17:23;;;;;;;34.23;17.25;;;;;;;0.89;85.50;101039.47;1773788;81;21371;-80
2020/12/16 03:20:30;;;;;;;31.02;17.32;;;;;;;0.89;85.54;101043.99;1775256;81;21256;-80
2020/12/16 03:23:36;;;;;;;26.48;15.72;;;;;;;0.87;85.42;101044.59;1775192;81;21335;-80
2020/12/16 03:26:55;;;;;;;35.00;20.05;;;;;;;0.83;85.32;101048.43;1771986;81;21330;-80
2020/12/16 03:30:09;;;;;;;32.55;17.70;;;;;;;0.81;85.35;101044.98;1775308;81;21905;-80
2020/12/16 03:33:33;;;;;;;31.82;18.50;;;;;;;0.82;85.60;101048.05;1775107;81;21292;-80
2020/12/16 03:36:47;;;;;;;33.08;19.07;;;;;;;0.87;85.73;101056.70;1774714;81;21248;-80
2020/12/16 03:39:52;;;;;;;26.65;15.53;;;;;;;0.89;85.62;101056.98;1775197;81;21232;-80
2020/12/16 03:42:59;;;;;;;28.52;14.93;;;;;;;0.90;85.46;101068.16;1775243;81;21847;-80
2020/12/16 03:46:05;;;;;;;40.75;18.02;;;;;;;0.90;85.28;101072.69;1775279;81;21311;-80
2020/12/16 03:49:12;;;;;;;31.55;17.67;;;;;;;0.87;85.05;101076.42;1775165;81;21161;-80
2020/12/16 03:52:20;;;;;;;28.20;16.25;;;;;;;0.88;85.07;101075.94;1775151;81;21245;-80
2020/12/16 03:55:27;;;;;;;26.68;13.15;;;;;;;0.87;84.84;101076.91;1772792;81;21346;-80
2020/12/16 03:58:49;;;;;;;33.95;18.52;;;;;;;0.82;84.25;101085.76;1772332;81;21338;-81
2020/12/16 04:02:12;;;;;;;30.32;14.60;;;;;;;0.76;84.15;101082.48;1773400;81;21961;-79
2020/12/16 04:05:21;;;;;;;23.20;13.28;;;;;;;0.77;84.31;101076.62;1775219;81;21316;-80
2020/12/16 04:08:28;;;;;;;22.15;12.28;;;;;;;0.73;83.96;101081.31;1773894;81;21264;-80
2020/12/16 04:11:35;;;;;;;19.65;12.43;;;;;;;0.68;83.85;101079.39;1775085;81;21295;-80
2020/12/16 04:14:43;;;;;;;19.67;11.08;;;;;;;0.62;83.64;101086.52;1775152;81;21169;-79
2020/12/16 04:17:49;;;;;;;14.78;8.73;;;;;;;0.57;83.44;101080.55;1774293;81;21379;-80
2020/12/16 04:20:57;;;;;;;14.87;10.00;;;;;;;0.51;83.52;101087.14;1775267;81;21180;-80
2020/12/16 04:24:03;;;;;;;14.85;8.63;;;;;;;0.48;83.62;101082.45;1773789;81;21296;-80
2020/12/16 04:27:10;;;;;;;15.48;7.95;;;;;;;0.46;83.74;101087.04;1766393;81;21331;-80
2020/12/16 04:30:16;;;;;;;15.38;9.00;;;;;;;0.46;83.63;101082.52;1775210;81;21295;-80
2020/12/16 04:33:22;;;;;;;14.38;9.55;;;;;;;0.48;83.64;101093.22;1774288;81;21323;-80
2020/12/16 04:36:27;;;;;;;14.10;8.25;;;;;;;0.51;83.90;101093.87;1773769;81;21236;-80
2020/12/16 04:39:33;;;;;;;12.30;7.70;;;;;;;0.54;83.95;101087.45;1775369;81;21304;-80
2020/12/16 04:42:40;;;;;;;11.45;7.83;;;;;;;0.48;83.44;101097.25;1775367;81;21913;-80
2020/12/16 04:45:46;;;;;;;10.03;6.10;;;;;;;0.43;82.99;101100.22;1775208;81;21318;-80
2020/12/16 04:48:55;;;;;;;13.38;8.40;;;;;;;0.44;82.91;101107.81;1773811;81;21308;-80
2020/12/16 04:52:03;;;;;;;15.18;9.33;;;;;;;0.43;83.00;101111.47;1775311;81;21272;-80
2020/12/16 04:55:29;;;;;;;14.93;9.68;;;;;;;0.45;82.98;101110.41;1775262;81;21185;-80
2020/12/16 04:58:38;;;;;;;20.37;10.05;;;;;;;0.46;82.97;101112.61;1774389;81;21303;-80
2020/12/16 05:01:50;;;;;;;19.73;10.05;;;;;;;0.45;83.09;101110.88;1773857;81;21292;-80
2020/12/16 05:05:00;;;;;;;12.28;8.15;;;;;;;0.42;83.32;101113.75;1766654;81;21824;-81
2020/12/16 05:08:07;;;;;;;16.87;9.50;;;;;;;0.43;83.50;101127.63;1768890;81;21907;-81
2020/12/16 05:11:13;;;;;;;19.25;9.93;;;;;;;0.41;83.55;101121.44;1769407;81;21189;-81
2020/12/16 05:14:26;;;;;;;14.43;9.55;;;;;;;0.40;83.66;101136.73;1769552;81;21338;-81
2020/12/16 05:17:32;;;;;;;16.10;10.10;;;;;;;0.37;83.73;101129.30;1769543;81;21330;-81
2020/12/16 05:20:38;;;;;;;14.53;9.73;;;;;;;0.39;83.93;101132.31;1769276;81;21736;-81
2020/12/16 05:23:44;;;;;;;17.82;11.33;;;;;;;0.49;83.96;101139.36;1769563;81;21812;-80
2020/12/16 05:26:58;;;;;;;28.70;13.38;;;;;;;0.54;83.50;101143.98;1769510;81;21197;-80
2020/12/16 05:30:07;;;;;;;18.23;10.35;;;;;;;0.51;83.31;101145.50;1768001;81;21328;-80
2020/12/16 05:33:13;;;;;;;17.05;10.03;;;;;;;0.43;83.49;101156.74;1769457;81;21911;-81
2020/12/16 05:36:18;;;;;;;15.72;10.68;;;;;;;0.32;83.76;101148.90;1769233;81;21345;-80
2020/12/16 05:39:24;;;;;;;22.37;11.45;;;;;;;0.23;84.11;101152.52;1768016;81;21177;-80
2020/12/16 05:42:30;;;;;;;19.35;11.20;;;;;;;0.21;84.46;101157.12;1769498;81;21169;-80
2020/12/16 05:45:36;;;;;;;16.75;9.73;;;;;;;0.22;84.72;101168.27;1769403;81;21181;-80
2020/12/16 05:48:42;;;;;;;13.60;10.03;;;;;;;0.26;84.80;101160.89;1768649;81;21372;-80
2020/12/16 05:51:49;;;;;;;18.85;10.18;;;;;;;0.25;84.75;101160.03;1768961;81;21288;-80
2020/12/16 05:54:56;;;;;;;17.27;10.30;;;;;;;0.25;84.79;101166.77;1745214;81;21311;-79
2020/12/16 05:58:17;;;;;;;13.20;9.60;;;;;;;0.24;84.88;101170.41;1769060;81;21303;-80
2020/12/16 06:01:22;;;;;;;17.60;11.35;;;;;;;0.28;85.00;101178.29;1769610;81;21759;-79
2020/12/16 06:04:28;;;;;;;16.80;10.15;;;;;;;0.27;84.96;101170.70;1747635;80;21337;-80
2020/12/16 06:07:35;;;;;;;22.93;12.55;;;;;;;0.25;85.07;101175.31;1738287;80;21819;-80
2020/12/16 06:10:41;;;;;;;23.55;11.60;;;;;;;0.21;85.17;101165.68;1734238;82;21869;-80
2020/12/16 06:13:50;;;;;;;21.97;13.40;;;;;;;0.17;85.36;101173.06;1726449;80;21318;-80
2020/12/16 06:16:56;;;;;;;21.20;13.28;;;;;;;0.16;85.66;101186.13;1736334;82;22681;-78
2020/12/16 06:20:02;;;;;;;17.23;10.68;;;;;;;0.18;85.64;101176.13;1742796;80;21251;-79
2020/12/16 06:23:07;;;;;;;21.95;14.05;;;;;;;0.21;85.44;101181.34;1745793;80;21306;-78
2020/12/16 06:26:17;;;;;;;21.37;12.80;;;;;;;0.21;85.39;101175.97;1741154;81;21168;-79
2020/12/16 06:29:23;;;;;;;22.20;13.50;;;;;;;0.24;85.38;101181.18;1678350;84;21752;-80
2020/12/16 06:32:33;;;;;;;26.25;14.93;;;;;;;0.27;85.38;101179.25;1695773;83;21286;-79
2020/12/16 06:35:39;;;;;;;18.37;12.78;;;;;;;0.32;85.42;101178.50;1687224;83;21309;-80
2020/12/16 06:38:54;;;;;;;18.30;13.10;;;;;;;0.42;85.41;101183.73;1697188;83;21341;-80
2020/12/16 06:42:07;;;;;;;18.15;12.55;;;;;;;0.48;85.28;101190.98;1663550;83;21322;-80
2020/12/16 06:45:23;;;;;;;18.95;11.80;;;;;;;0.55;85.07;101193.30;1713767;82;21303;-81
2020/12/16 06:48:47;;;;;;;18.85;12.73;;;;;;;0.63;84.77;101193.25;1642086;84;21318;-81
2020/12/16 06:51:55;;;;;;;21.50;12.03;;;;;;;0.69;84.43;101198.73;1740244;81;21334;-82
2020/12/16 06:55:02;;;;;;;28.25;15.30;;;;;;;0.72;83.95;101203.47;1738118;80;21302;-81
2020/12/16 06:58:09;;;;;;;24.52;15.20;;;;;;;0.66;83.74;101202.50;1743957;81;21310;-80
2020/12/16 07:01:22;;;;;;;23.27;14.10;;;;;;;0.59;83.82;101198.91;1744610;81;21635;-80
2020/12/16 07:04:47;;;;;;;23.12;14.53;;;;;;;0.56;84.02;101198.59;1676741;84;21226;-79
2020/12/16 07:07:58;;;;;;;19.52;13.10;;;;;;;0.57;84.02;101216.50;1712026;82;21292;-80
2020/12/16 07:11:05;;;;;;;23.35;13.85;;;;;;;0.58;83.92;101198.04;1769739;79;21355;-80
2020/12/16 07:14:27;;;;;;;21.30;14.25;;;;;;;0.55;83.97;101202.25;1772002;79;21318;-78
2020/12/16 07:17:33;;;;;;;17.45;12.28;;;;;;;0.54;84.13;101204.56;1771737;80;21798;-81
2020/12/16 07:20:39;;;;;;;22.82;14.03;;;;;;;0.56;84.27;101197.24;1769664;80;21319;-80
2020/12/16 07:24:03;;;;;;;24.63;13.15;;;;;;;0.57;84.24;101199.48;1766596;80;21308;-81
2020/12/16 07:27:11;;;;;;;23.57;16.07;;;;;;;0.54;84.29;101199.17;1766864;81;21304;-79
2020/12/16 07:30:17;;;;;;;24.52;15.00;;;;;;;0.50;84.42;101204.34;1751019;80;21343;-80
2020/12/16 07:33:26;;;;;;;32.70;17.32;;;;;;;0.43;84.60;101209.72;1769021;80;21303;-81
2020/12/16 07:36:33;;;;;;;27.50;14.60;;;;;;;0.37;84.91;101210.05;1769730;79;21192;-81
2020/12/16 07:39:39;;;;;;;22.65;15.35;;;;;;;0.34;85.26;101211.59;1779212;80;21332;-80
2020/12/16 07:42:45;;;;;;;28.20;16.87;;;;;;;0.37;85.48;101214.09;1781866;79;21276;-81
2020/12/16 07:45:51;;;;;;;25.00;16.93;;;;;;;0.36;85.36;101216.39;1781445;80;21284;-81
2020/12/16 07:48:56;;;;;;;31.45;13.68;;;;;;;0.40;85.43;101212.09;1773242;80;21898;-81
2020/12/16 07:52:12;;;;;;;20.85;12.80;;;;;;;0.44;85.44;101216.83;1776509;80;21288;-81
2020/12/16 07:55:17;;;;;;;23.77;15.05;;;;;;;0.45;85.32;101215.86;1767380;80;21181;-80
2020/12/16 07:58:24;;;;;;;26.05;16.35;;;;;;;0.44;85.30;101223.55;1779248;80;21972;-80
2020/12/16 08:01:34;;;;;;;28.87;18.10;;;;;;;0.40;85.43;101226.03;1768765;80;21323;-81
2020/12/16 08:04:42;;;;;;;19.70;13.38;;;;;;;0.35;85.44;101211.50;1776072;80;21823;-81
2020/12/16 08:07:50;;;;;;;31.30;16.42;;;;;;;0.36;85.62;101217.73;1771024;79;21203;-80
2020/12/16 08:10:56;;;;;;;19.35;13.72;;;;;;;0.40;85.67;101221.99;1777919;80;21291;-80
2020/12/16 08:14:13;;;;;;;28.87;17.98;;;;;;;0.43;85.73;101219.14;1782474;79;21292;-81
2020/12/16 08:17:19;;;;;;;23.73;15.10;;;;;;;0.46;85.73;101214.90;1787274;79;21784;-81
2020/12/16 08:20:31;;;;;;;23.10;14.50;;;;;;;0.47;85.54;101218.87;1783839;80;21283;-81
2020/12/16 08:23:36;;;;;;;18.55;12.95;;;;;;;0.43;85.35;101211.06;1788873;79;21894;-81
2020/12/16 08:26:41;;;;;;;20.48;14.05;;;;;;;0.44;85.32;101217.69;1791730;79;21820;-81
2020/12/16 08:29:46;;;;;;;24.50;14.40;;;;;;;0.46;85.20;101211.73;1785703;79;21128;-81
2020/12/16 08:33:01;;;;;;;25.55;16.62;;;;;;;0.48;85.14;101205.79;1754107;81;21355;-81
2020/12/16 08:36:12;;;;;;;17.67;12.60;;;;;;;0.56;85.06;101213.39;1749898;80;22383;-82
2020/12/16 08:39:18;;;;;;;15.08;11.73;;;;;;;0.66;84.81;101214.62;1786095;79;21180;-81
2020/12/16 08:42:30;;;;;;;17.40;11.43;;;;;;;0.73;84.06;101221.35;1763990;79;21330;-81
2020/12/16 08:45:36;;;;;;;14.55;10.48;;;;;;;0.81;83.38;101222.25;1786878;79;21385;-81
2020/12/16 08:48:56;;;;;;;17.55;10.38;;;;;;;0.86;82.82;101211.20;1786555;79;21322;-80
2020/12/16 08:52:04;;;;;;;14.90;9.88;;;;;;;0.91;82.30;101221.22;1784897;79;21275;-81
2020/12/16 08:58:38;;;;;;;16.87;10.58;;;;;;;0.96;81.46;101221.33;1686646;83;21295;-83
2020/12/16 09:01:46;;;;;;;29.87;17.80;;;;;;;1.05;81.13;101225.78;1712312;81;21347;-81
2020/12/16 09:04:52;;;;;;;23.27;12.93;;;;;;;1.13;80.64;101232.44;1711795;81;21737;-80
2020/12/16 09:07:58;;;;;;;17.73;12.00;;;;;;;1.15;80.01;101225.12;1715634;81;21341;-80
2020/12/16 09:11:07;;;;;;;13.48;9.23;;;;;;;1.11;80.05;101222.22;1718761;81;21243;-80
2020/12/16 09:14:13;;;;;;;22.40;12.50;;;;;;;1.09;80.03;101226.84;1681589;83;21213;-80
2020/12/16 09:17:19;;;;;;;18.77;12.18;;;;;;;0.99;80.08;101223.84;1713217;81;21600;-80
2020/12/16 09:20:25;;;;;;;14.73;9.93;;;;;;;1.01;80.55;101224.61;1718057;81;21365;-81
2020/12/16 09:23:32;;;;;;;16.90;10.70;;;;;;;1.10;80.59;101227.23;1711827;82;21306;-81
2020/12/16 09:26:47;;;;;;;12.85;9.18;;;;;;;1.14;80.38;101232.82;1727058;81;21329;-81
2020/12/16 09:29:53;;;;;;;12.82;8.38;;;;;;;1.22;79.70;101230.98;1715016;82;21301;-81
2020/12/16 09:33:01;;;;;;;15.35;9.90;;;;;;;1.25;79.33;101235.71;1720224;82;21322;-81
2020/12/16 09:36:08;;;;;;;18.73;11.80;;;;;;;1.22;79.00;101230.53;1716885;82;21464;-81
2020/12/16 09:39:15;;;;;;;17.07;11.40;;;;;;;1.27;78.95;101232.91;1687063;83;21328;-81
2020/12/16 09:42:22;;;;;;;16.57;10.00;;;;;;;1.31;78.53;101227.73;1666660;85;21340;-81
2020/12/16 09:45:29;;;;;;;16.97;10.50;;;;;;;1.31;78.26;101228.21;1734927;82;21444;-81
2020/12/16 09:48:37;;;;;;;12.82;8.28;;;;;;;1.33;78.32;101230.34;1729600;82;21292;-82
2020/12/16 09:51:43;;;;;;;55.05;25.20;;;;;;;1.36;77.95;101236.39;1717606;82;21279;-81
2020/12/16 09:54:49;;;;;;;45.00;19.17;;;;;;;1.38;77.74;101226.88;1733777;82;21282;-81
2020/12/16 09:58:15;;;;;;;20.88;9.80;;;;;;;1.42;77.77;101218.99;1711215;82;21342;-83
2020/12/16 10:01:21;;;;;;;16.15;7.65;;;;;;;1.47;77.75;101220.92;1690024;83;21623;-84
2020/12/16 10:04:27;;;;;;;13.03;7.83;;;;;;;1.41;77.61;101215.89;1688231;83;21351;-81
2020/12/16 10:07:36;;;;;;;12.05;6.87;;;;;;;1.37;77.47;101213.89;1685949;83;21676;-80
2020/12/16 10:10:40;;;;;;;17.73;8.88;;;;;;;1.34;77.41;101211.38;1648302;85;21369;-80
2020/12/16 10:13:50;;;;;;;13.60;9.08;;;;;;;1.30;77.50;101210.31;1685292;84;21340;-81
2020/12/16 10:16:55;;;;;;;13.00;7.50;;;;;;;1.31;77.51;101206.64;1678878;84;21363;-81
2020/12/16 10:20:02;;;;;;;12.80;8.55;;;;;;;1.23;77.29;101207.14;1679303;83;21882;-81
2020/12/16 10:23:09;;;;;;;19.73;9.40;;;;;;;1.14;77.23;101207.22;1681283;83;21945;-81
2020/12/16 10:26:15;;;;;;;15.35;9.13;;;;;;;1.15;77.46;101215.69;1685183;83;21337;-81
2020/12/16 10:29:21;;;;;;;17.07;8.75;;;;;;;1.16;77.49;101206.63;1687830;83;21523;-80
2020/12/16 10:32:28;;;;;;;16.20;9.60;;;;;;;1.17;77.37;101212.89;1685795;83;21361;-81
2020/12/16 10:35:34;;;;;;;12.23;7.20;;;;;;;1.16;77.56;101213.86;1690745;83;21302;-81
2020/12/16 10:38:39;;;;;;;18.02;8.98;;;;;;;1.14;77.57;101209.05;1690907;83;21771;-81
2020/12/16 10:41:45;;;;;;;13.83;8.58;;;;;;;1.05;77.37;101209.13;1686093;83;21299;-81
2020/12/16 10:44:52;;;;;;;11.40;7.80;;;;;;;1.06;77.53;101214.90;1688259;83;21285;-80
2020/12/16 10:48:01;;;;;;;10.70;6.50;;;;;;;1.08;77.30;101204.88;1690076;84;21235;-81
2020/12/16 10:51:06;;;;;;;9.05;6.08;;;;;;;1.05;77.03;101210.48;1687835;83;21313;-81
2020/12/16 10:54:13;;;;;;;11.85;6.78;;;;;;;1.09;77.08;101207.98;1684344;83;21358;-81
2020/12/16 10:57:20;;;;;;;13.48;9.18;;;;;;;1.11;77.06;101214.62;1684897;83;21336;-81
2020/12/16 11:00:27;;;;;;;10.70;6.87;;;;;;;1.11;77.00;101204.70;1713170;82;21926;-81
2020/12/16 11:03:25;;;;;;;14.38;9.05;;;;;;;1.14;76.83;101211.27;1714167;82;21336;-82
2020/12/16 11:06:32;;;;;;;12.13;7.72;;;;;;;1.06;76.53;101209.51;1691704;83;21541;-81
2020/12/16 11:09:37;;;;;;;20.37;9.40;;;;;;;1.03;76.88;101212.38;1685826;83;21960;-81
2020/12/16 11:12:43;;;;;;;12.45;8.00;;;;;;;1.01;77.29;101212.48;1691044;83;21896;-82
2020/12/16 11:15:51;;;;;;;15.05;8.05;;;;;;;1.06;77.37;101215.38;1694278;83;21360;-81
2020/12/16 11:18:57;;;;;;;14.53;9.35;;;;;;;1.07;77.54;101211.72;1663555;85;21331;-81
2020/12/16 11:22:04;;;;;;;12.40;8.50;;;;;;;0.99;77.74;101213.55;1683803;83;21303;-82
2020/12/16 11:25:13;;;;;;;18.90;8.63;;;;;;;0.90;78.20;101212.77;1682824;84;21878;-82
2020/12/16 11:28:18;;;;;;;11.53;7.65;;;;;;;0.88;78.44;101216.87;1685749;84;21393;-81
2020/12/16 11:31:24;;;;;;;17.48;10.18;;;;;;;0.88;78.65;101224.09;1680663;84;21271;-81
2020/12/16 11:34:35;;;;;;;15.60;10.30;;;;;;;0.87;78.88;101223.22;1683816;85;21499;-81
2020/12/16 11:37:44;;;;;;;13.43;8.53;;;;;;;0.90;79.00;101220.36;1686434;83;21318;-81
2020/12/16 11:40:48;;;;;;;21.97;11.20;;;;;;;0.94;79.09;101221.02;1679473;84;21192;-81
2020/12/16 11:43:54;;;;;;;17.65;11.03;;;;;;;0.91;79.25;101225.27;1653150;85;21404;-82
2020/12/16 11:47:00;;;;;;;14.05;9.30;;;;;;;0.88;79.44;101226.78;1690886;83;21839;-81
2020/12/16 11:50:06;;;;;;;15.45;9.93;;;;;;;0.82;79.60;101232.55;1661139;85;21932;-81
2020/12/16 11:53:12;;;;;;;17.77;10.70;;;;;;;0.74;79.81;101231.16;1660575;85;21809;-79
2020/12/16 11:56:18;;;;;;;21.15;12.50;;;;;;;0.72;79.98;101231.75;1690612;83;21358;-81
2020/12/16 11:59:24;;;;;;;12.88;7.97;;;;;;;0.74;80.12;101236.55;1689224;83;21414;-81
2020/12/16 12:02:30;;;;;;;14.80;10.43;;;;;;;0.72;80.31;101242.52;1700871;83;21350;-81
2020/12/16 12:05:39;;;;;;;16.40;11.33;;;;;;;0.67;80.55;101231.63;1700989;83;21328;-81
2020/12/16 12:08:45;;;;;;;16.02;11.03;;;;;;;0.71;80.80;101235.41;1690757;83;21302;-81
2020/12/16 12:11:51;;;;;;;19.75;11.90;;;;;;;0.72;80.66;101244.34;1674222;85;21287;-82
2020/12/16 12:14:58;;;;;;;21.00;11.63;;;;;;;0.71;80.57;101242.62;1698958;83;21292;-82
2020/12/16 12:18:06;;;;;;;23.67;11.65;;;;;;;0.71;80.47;101243.48;1674749;85;21189;-82
2020/12/16 12:21:14;;;;;;;20.90;11.30;;;;;;;0.74;80.30;101243.77;1667104;85;21320;-81
2020/12/16 12:24:20;;;;;;;18.23;12.05;;;;;;;0.80;80.30;101250.61;1687614;83;21751;-81
2020/12/16 12:27:25;;;;;;;23.05;12.73;;;;;;;0.83;79.98;101238.31;1696141;83;21156;-81
2020/12/16 12:30:33;;;;;;;23.40;12.80;;;;;;;0.87;79.99;101240.73;1694423;83;21184;-81
2020/12/16 12:33:40;;;;;;;16.30;11.10;;;;;;;0.94;79.56;101231.79;1692142;83;21361;-81
2020/12/16 12:36:46;;;;;;;17.52;11.22;;;;;;;0.97;78.92;101234.31;1703556;83;21350;-82
2020/12/16 12:39:54;;;;;;;27.70;12.15;;;;;;;0.85;78.63;101231.00;1689455;84;21745;-82
2020/12/16 12:42:59;;;;;;;20.97;13.35;;;;;;;0.71;78.96;101230.02;1663958;86;21196;-82
2020/12/16 12:46:04;;;;;;;24.82;12.28;;;;;;;0.74;79.29;101232.51;1697429;83;21322;-81
2020/12/16 12:49:09;;;;;;;25.90;13.40;;;;;;;0.76;79.36;101234.65;1691751;85;21338;-81
2020/12/16 12:52:17;;;;;;;24.72;13.45;;;;;;;0.81;79.31;101244.28;1700350;83;21293;-81
2020/12/16 12:55:23;;;;;;;20.97;11.53;;;;;;;0.83;79.36;101244.56;1699886;83;21202;-81
2020/12/16 12:58:29;;;;;;;23.05;13.78;;;;;;;0.83;79.40;101245.05;1703484;83;21324;-82
2020/12/16 13:01:36;;;;;;;29.48;14.60;;;;;;;0.82;79.57;101238.80;1671296;85;21244;-82
2020/12/16 13:04:42;;;;;;;20.92;12.43;;;;;;;0.88;79.71;101250.54;1721024;82;21171;-82
2020/12/16 13:07:47;;;;;;;21.48;13.03;;;;;;;0.92;79.67;101256.63;1708425;82;21315;-82
2020/12/16 13:10:53;;;;;;;19.98;12.88;;;;;;;0.90;79.67;101263.45;1733923;82;21363;-81
2020/12/16 13:13:59;;;;;;;25.80;13.43;;;;;;;0.81;79.90;101261.80;1722438;82;21329;-82
2020/12/16 13:17:04;;;;;;;16.10;11.20;;;;;;;0.74;80.19;101267.52;1727336;82;21838;-82
2020/12/16 13:20:10;;;;;;;17.10;9.88;;;;;;;0.73;80.35;101259.05;1707461;82;21324;-80
2020/12/16 13:23:16;;;;;;;51.95;28.35;;;;;;;0.73;80.47;101269.83;1701047;82;21307;-83
2020/12/16 13:26:22;;;;;;;42.05;22.80;;;;;;;0.71;80.36;101273.11;1716898;82;21315;-81
2020/12/16 13:29:27;;;;;;;204.72;85.57;;;;;;;0.70;80.56;101276.73;1705831;82;21302;-81
2020/12/16 13:32:32;;;;;;;41.65;17.70;;;;;;;0.62;80.88;101289.80;1706547;83;21405;-81
2020/12/16 13:35:38;;;;;;;26.15;16.65;;;;;;;0.67;81.20;101289.53;1708821;83;21393;-81
2020/12/16 13:38:44;;;;;;;22.80;14.65;;;;;;;0.70;81.15;101292.89;1689773;82;21290;-81
2020/12/16 13:41:49;;;;;;;19.67;12.68;;;;;;;0.66;81.18;101292.70;1703710;82;21331;-81
2020/12/16 13:44:57;;;;;;;21.23;13.22;;;;;;;0.56;81.14;101296.86;1708451;82;21755;-81
2020/12/16 13:48:03;;;;;;;27.13;13.18;;;;;;;0.47;81.29;101301.42;1705191;82;21314;-81
2020/12/16 13:51:07;;;;;;;20.52;12.23;;;;;;;0.48;81.42;101299.14;1672834;84;21362;-81
2020/12/16 13:54:13;;;;;;;24.18;13.60;;;;;;;0.49;81.37;101309.81;1720484;82;21306;-81
2020/12/16 13:57:19;;;;;;;23.07;13.08;;;;;;;0.44;81.53;101307.00;1738036;82;21313;-81
2020/12/16 14:00:25;;;;;;;22.30;12.68;;;;;;;0.31;81.90;101308.16;1737068;82;21312;-83
2020/12/16 14:03:31;;;;;;;18.50;10.75;;;;;;;0.27;82.35;101315.15;1728571;82;21345;-82
2020/12/16 14:06:36;;;;;;;29.48;18.02;;;;;;;0.17;82.55;101301.34;1736381;82;21939;-82
2020/12/16 14:09:41;;;;;;;32.13;18.12;;;;;;;0.17;82.89;101308.07;1737429;82;21301;-83
2020/12/16 14:12:47;;;;;;;23.98;13.50;;;;;;;0.28;83.08;101311.50;1738225;82;21388;-82
2020/12/16 14:15:53;;;;;;;25.30;16.27;;;;;;;0.34;82.92;101310.70;1745819;82;21340;-82
2020/12/16 14:18:58;;;;;;;25.90;17.00;;;;;;;0.36;82.85;101311.94;1737369;82;21372;-82
2020/12/16 14:22:05;;;;;;;19.87;11.95;;;;;;;0.31;83.01;101311.34;1723831;82;21316;-82
2020/12/16 14:25:11;;;;;;;15.23;9.65;;;;;;;0.27;83.37;101316.50;1720733;82;21262;-82
2020/12/16 14:28:16;;;;;;;16.97;11.10;;;;;;;0.22;83.60;101320.78;1712181;82;21569;-82